Time;durP1;ratioP1;P1;durP2;ratioP2;P2;SDS_P1;SDS_P2;PMS_P1;PMS_P2;Temp;Humidity;BMP_temperature;BMP_pressure;BME280_temperature;BME280_humidity;BME280_pressure;Samples;Min_cycle;Max_cycle;Signal;HPM_P1;HPM_P2
2021/04/26 00:01:52;;;;;;;7.70;4.90;;;12.70;76.80;;;14.06;42.73;101879.84;4879295;28;100006;-55
2021/04/26 00:04:18;;;;;;;11.30;5.10;;;12.70;77.90;;;14.04;42.53;101876.38;4895308;28;99467;-56
2021/04/26 00:06:44;;;;;;;7.03;4.87;;;12.70;78.90;;;14.03;42.27;101870.16;4889509;28;98493;-56
2021/04/26 00:09:10;;;;;;;9.40;4.93;;;12.70;77.70;;;14.02;42.47;101867.56;4882050;28;98441;-54
2021/04/26 00:11:36;;;;;;;7.13;5.67;;;12.70;77.80;;;13.98;42.43;101857.06;4892247;28;98311;-54
2021/04/26 00:14:05;;;;;;;8.07;5.37;;;12.60;77.20;;;14.00;42.40;101860.53;4886993;28;98919;-55
2021/04/26 00:16:31;;;;;;;12.00;5.30;;;12.70;77.70;;;13.96;42.03;101858.03;4869433;28;98001;-53
2021/04/26 00:18:56;;;;;;;9.93;5.40;;;12.60;77.30;;;13.92;42.10;101854.59;4884836;28;98988;-58
2021/04/26 00:21:22;;;;;;;8.40;5.47;;;12.60;77.50;;;13.88;42.56;101855.59;4887969;28;99510;-54
2021/04/26 00:23:48;;;;;;;8.80;5.60;;;12.50;79.40;;;13.80;42.78;101856.75;4922114;28;96866;-51
2021/04/26 00:26:14;;;;;;;9.70;5.50;;;12.40;79.40;;;13.76;42.52;101850.69;4925594;28;97669;-54
2021/04/26 00:28:40;;;;;;;7.13;5.17;;;12.40;78.00;;;13.72;43.24;101851.66;4904607;28;98912;-56
2021/04/26 00:31:06;;;;;;;9.77;5.17;;;12.30;79.90;;;13.71;42.78;101847.28;4909980;28;98174;-55
2021/04/26 00:33:32;;;;;;;8.60;5.23;;;12.40;78.70;;;13.69;42.69;101838.50;4924314;28;98245;-54
2021/04/26 00:35:57;;;;;;;5.07;3.53;;;12.30;78.50;;;13.63;43.22;101838.69;4911995;28;97712;-52
2021/04/26 00:38:24;;;;;;;14.17;6.53;;;12.20;79.30;;;13.61;42.94;101835.22;4905830;28;105862;-53
2021/04/26 00:40:50;;;;;;;13.37;7.63;;;12.20;79.00;;;13.58;43.39;101832.63;4914193;28;97300;-53
2021/04/26 00:43:15;;;;;;;13.40;7.13;;;12.10;79.90;;;13.57;43.15;101838.84;4906606;28;97554;-55
2021/04/26 00:45:41;;;;;;;8.07;4.50;;;12.20;79.10;;;13.61;43.35;101835.22;4913367;28;97251;-56
2021/04/26 00:48:08;;;;;;;7.67;4.87;;;12.30;79.40;;;13.62;43.58;101834.31;4904276;28;100180;-52
2021/04/26 00:50:34;;;;;;;7.13;4.47;;;12.20;79.80;;;13.66;43.42;101833.28;4911556;28;98222;-55
2021/04/26 00:53:03;;;;;;;7.27;4.67;;;12.30;79.40;;;13.58;43.33;101830.84;4909778;28;98208;-56
2021/04/26 00:55:33;;;;;;;6.37;4.37;;;12.10;79.80;;;13.59;43.38;101826.41;4915789;28;97971;-54
2021/04/26 00:57:59;;;;;;;7.60;4.87;;;12.20;80.00;;;13.61;43.45;101824.63;4914562;28;97220;-52
2021/04/26 01:00:26;;;;;;;4.00;3.30;;;12.20;80.00;;;13.60;43.51;101821.09;4906857;28;97361;-50
2021/04/26 01:02:52;;;;;;;8.67;5.10;;;12.20;80.00;;;13.54;43.11;101823.91;4895371;28;97405;-54
2021/04/26 01:05:21;;;;;;;5.93;3.77;;;12.10;79.30;;;13.50;43.90;101821.41;4906510;28;99300;-51
2021/04/26 01:07:47;;;;;;;5.53;4.23;;;11.90;79.80;;;13.47;43.89;101819.72;4914106;28;98909;-55
2021/04/26 01:10:19;;;;;;;8.23;5.20;;;11.90;82.50;;;13.54;43.39;101812.44;4907351;28;98791;-55
2021/04/26 01:13:19;;;;;;;6.50;3.40;;;12.10;79.70;;;13.55;43.80;101814.19;4914020;28;98758;-55
2021/04/26 01:16:19;;;;;;;8.77;4.80;;;12.10;79.80;;;13.56;43.66;101815.91;4909491;28;96819;-53
2021/04/26 01:19:46;;;;;;;6.30;3.93;;;12.10;80.00;;;13.48;43.03;101813.50;4905805;28;101915;-50
2021/04/26 01:22:36;;;;;;;5.77;4.47;;;12.00;79.10;;;13.48;43.46;101816.16;4910139;28;106075;-55
2021/04/26 01:25:16;;;;;;;8.70;4.17;;;12.00;79.40;;;13.41;43.15;101806.63;4907873;28;96960;-53
2021/04/26 01:28:10;;;;;;;6.43;4.43;;;11.90;80.00;;;13.38;43.87;101807.59;4907468;28;97384;-52
2021/04/26 01:30:59;;;;;;;7.33;4.83;;;11.80;80.70;;;13.39;44.09;101801.38;4907119;28;100696;-54
2021/04/26 01:33:29;;;;;;;5.43;4.13;;;11.90;80.70;;;13.41;44.08;101801.34;4909722;28;96925;-51
2021/04/26 01:36:00;;;;;;;4.53;3.40;;;12.00;81.30;;;13.43;43.81;101799.50;4912751;28;97523;-56
2021/04/26 01:38:31;;;;;;;7.63;4.60;;;12.00;78.70;;;13.46;43.81;101787.97;4909693;28;96961;-55
2021/04/26 01:40:58;;;;;;;5.47;4.40;;;12.10;79.80;;;13.46;43.86;101796.78;4908138;28;97661;-53
2021/04/26 01:43:28;;;;;;;12.23;4.90;;;12.10;79.30;;;13.49;43.73;101793.16;4904428;28;97004;-55
2021/04/26 01:46:01;;;;;;;12.23;5.30;;;12.10;79.60;;;13.51;43.85;101792.22;4909880;28;97338;-53
2021/04/26 01:48:30;;;;;;;7.33;5.10;;;12.10;79.20;;;13.50;43.08;101790.47;4908669;28;97015;-55
2021/04/26 01:50:59;;;;;;;7.70;5.47;;;12.10;77.80;;;13.45;43.59;101796.81;4908103;28;99289;-56
2021/04/26 01:53:26;;;;;;;8.37;4.87;;;11.90;79.00;;;13.39;43.45;101793.44;4911848;28;99401;-54
2021/04/26 01:55:56;;;;;;;8.33;4.67;;;11.90;78.10;;;13.30;43.20;101791.03;4913236;28;97665;-53
2021/04/26 01:58:24;;;;;;;6.87;4.97;;;11.70;79.10;;;13.26;43.45;101792.03;4906636;28;99589;-54
2021/04/26 02:00:50;;;;;;;8.33;4.97;;;11.60;78.80;;;13.25;44.41;101787.66;4911052;28;99452;-54
2021/04/26 02:03:24;;;;;;;11.43;6.03;;;11.70;80.90;;;13.23;44.38;101781.53;4906547;28;97572;-53
2021/04/26 02:05:54;;;;;;;9.47;5.47;;;11.70;79.70;;;13.26;44.33;101783.22;4911740;28;97184;-54
2021/04/26 02:08:20;;;;;;;12.37;5.63;;;11.80;80.30;;;13.23;44.07;101776.25;4906898;28;97118;-54
2021/04/26 02:10:47;;;;;;;10.97;6.47;;;11.70;79.30;;;13.19;43.65;101774.59;4911584;28;98846;-55
2021/04/26 02:13:22;;;;;;;7.83;4.30;;;11.70;79.20;;;13.11;44.42;101776.56;4906196;28;97558;-53
2021/04/26 02:15:52;;;;;;;7.73;5.87;;;11.50;79.60;;;13.08;44.08;101781.94;4912863;28;97260;-55
2021/04/26 02:18:18;;;;;;;9.47;5.73;;;11.40;80.50;;;13.02;43.60;101776.84;4908620;28;97776;-55
2021/04/26 02:20:43;;;;;;;5.07;3.27;;;11.40;79.50;;;12.99;44.84;101776.91;4930881;28;100624;-56
2021/04/26 02:23:11;;;;;;;9.87;6.03;;;11.30;80.10;;;12.98;44.95;101775.16;4888156;28;97305;-55
2021/04/26 02:25:37;;;;;;;5.93;4.13;;;11.40;81.60;;;13.00;44.79;101776.84;4908938;28;97298;-55
2021/04/26 02:28:04;;;;;;;8.23;6.20;;;11.40;82.30;;;13.03;44.57;101770.63;4902072;28;97204;-54
2021/04/26 02:30:30;;;;;;;10.97;6.47;;;11.60;81.40;;;13.08;44.72;101766.06;4908695;28;99629;-53
2021/04/26 02:33:12;;;;;;;8.90;6.03;;;11.70;80.30;;;13.13;44.62;101769.44;4907485;28;98234;-52
2021/04/26 02:35:44;;;;;;;12.60;6.10;;;11.70;80.40;;;13.13;44.03;101764.13;4916871;28;97509;-53
2021/04/26 02:38:30;;;;;;;9.07;5.60;;;11.70;80.40;;;13.08;44.33;101766.06;4890712;28;97155;-55
2021/04/26 02:41:05;;;;;;;10.53;5.80;;;11.50;78.60;;;13.03;44.62;101757.38;4910119;28;103969;-55
2021/04/26 02:43:37;;;;;;;5.80;3.67;;;11.40;80.80;;;12.98;44.20;101759.28;4904350;28;98466;-53
2021/04/26 02:46:05;;;;;;;7.70;5.13;;;11.30;79.20;;;12.99;44.75;101766.31;4909585;28;97200;-54
2021/04/26 02:48:32;;;;;;;8.83;5.53;;;11.30;80.90;;;13.04;44.63;101748.53;4901491;28;98038;-55
2021/04/26 02:51:00;;;;;;;3.07;2.50;;;11.50;80.50;;;13.06;44.74;101744.03;4910717;28;97861;-56
2021/04/26 02:53:31;;;;;;;4.80;2.93;;;11.50;79.30;;;13.09;44.50;101736.00;4899974;28;97833;-52
2021/04/26 02:56:05;;;;;;;9.73;5.83;;;11.50;78.80;;;13.14;43.89;101733.22;4898788;28;96936;-55
2021/04/26 02:58:32;;;;;;;8.77;5.07;;;11.60;79.30;;;13.16;44.42;101726.94;4902092;28;97124;-55
2021/04/26 03:01:00;;;;;;;8.67;6.17;;;11.70;79.80;;;13.18;44.02;101735.78;4913657;28;99520;-55
2021/04/26 03:03:28;;;;;;;6.10;4.57;;;11.70;79.40;;;13.21;44.34;101725.09;4904579;28;96954;-53
2021/04/26 03:05:55;;;;;;;8.77;4.70;;;11.70;80.00;;;13.23;43.87;101733.84;4893054;28;97206;-50
2021/04/26 03:08:21;;;;;;;3.70;2.80;;;11.80;77.90;;;13.25;44.22;101732.03;4906426;28;97875;-54
2021/04/26 03:10:49;;;;;;;4.50;3.37;;;11.80;78.70;;;13.26;44.13;101733.75;4898248;28;99233;-55
2021/04/26 03:13:17;;;;;;;4.93;3.67;;;11.80;80.30;;;13.30;44.03;101730.09;4903353;28;97051;-56
2021/04/26 03:15:43;;;;;;;9.93;6.93;;;11.90;78.70;;;13.35;43.70;101730.84;4926238;28;97327;-55
2021/04/26 03:18:13;;;;;;;7.73;5.30;;;11.90;79.60;;;13.35;43.35;101722.88;4914642;28;97603;-53
2021/04/26 03:20:39;;;;;;;8.03;3.90;;;11.90;78.10;;;13.30;43.92;101722.13;4909812;28;104047;-53
2021/04/26 03:23:07;;;;;;;11.47;6.33;;;11.80;78.50;;;13.29;44.12;101725.69;4909654;28;100021;-53
2021/04/26 03:25:34;;;;;;;6.57;4.47;;;11.70;78.50;;;13.29;43.48;101719.53;4906677;28;98236;-56
2021/04/26 03:28:01;;;;;;;6.60;4.20;;;11.80;77.60;;;13.21;44.08;101719.78;4909370;28;97082;-55
2021/04/26 03:30:28;;;;;;;13.57;6.83;;;11.60;77.90;;;13.17;43.93;101718.13;4906337;28;98358;-55
2021/04/26 03:32:54;;;;;;;9.80;5.97;;;11.50;79.30;;;13.16;44.19;101719.00;4908446;28;99494;-54
2021/04/26 03:35:22;;;;;;;6.63;4.60;;;11.50;80.30;;;13.13;43.82;101716.44;4903121;28;97094;-56
2021/04/26 03:37:53;;;;;;;5.77;3.47;;;11.50;78.20;;;13.08;44.43;101721.03;4914255;28;96982;-55
2021/04/26 03:40:24;;;;;;;4.73;3.07;;;11.40;80.20;;;13.08;44.37;101707.78;4908954;28;103323;-52
2021/04/26 03:42:57;;;;;;;7.03;3.93;;;11.50;81.00;;;13.10;44.42;101705.94;4911355;28;98034;-56
2021/04/26 03:45:25;;;;;;;5.57;3.10;;;11.50;79.90;;;13.16;44.46;101707.53;4902732;28;98225;-51
2021/04/26 03:47:52;;;;;;;4.53;3.37;;;11.70;82.80;;;13.23;44.29;101702.06;4906079;28;98243;-53
2021/04/26 03:50:19;;;;;;;5.50;4.43;;;12.00;80.40;;;13.33;43.98;101707.97;4920312;28;98982;-53
2021/04/26 03:52:46;;;;;;;7.77;5.53;;;12.10;79.50;;;13.39;43.62;101700.66;4910772;28;97048;-53
2021/04/26 03:55:17;;;;;;;6.13;3.47;;;12.20;78.40;;;13.42;43.64;101691.75;4909548;28;97006;-53
2021/04/26 03:57:42;;;;;;;8.23;5.53;;;12.10;77.30;;;13.39;43.68;101703.31;4909306;28;97685;-54
2021/04/26 04:00:12;;;;;;;5.37;4.23;;;12.00;77.50;;;13.37;43.35;101705.16;4912083;28;97513;-54
2021/04/26 04:02:39;;;;;;;9.50;5.50;;;11.80;77.50;;;13.30;43.41;101697.41;4907880;28;97122;-54
2021/04/26 04:05:10;;;;;;;6.97;4.53;;;11.70;78.80;;;13.23;43.71;101696.75;4912173;28;100356;-53
2021/04/26 04:07:37;;;;;;;6.73;4.13;;;11.60;79.50;;;13.23;43.96;101696.75;4908264;28;99060;-53
2021/04/26 04:10:09;;;;;;;5.63;3.23;;;11.70;80.30;;;13.22;44.04;101697.66;4919855;28;99605;-54
2021/04/26 04:12:35;;;;;;;7.13;5.57;;;11.70;79.20;;;13.17;43.21;101699.56;4904373;28;97741;-52
2021/04/26 04:15:03;;;;;;;6.37;4.90;;;11.60;78.40;;;13.13;43.30;101697.03;4914746;28;97126;-51
2021/04/26 04:17:28;;;;;;;10.13;5.53;;;11.50;77.90;;;13.10;44.06;101703.28;4919054;28;97527;-52
2021/04/26 04:19:54;;;;;;;9.00;5.57;;;11.50;79.80;;;13.13;44.10;101700.56;4915573;28;101305;-53
2021/04/26 04:22:20;;;;;;;7.80;4.80;;;11.60;79.90;;;13.14;43.72;101697.00;4904990;28;99969;-55
2021/04/26 04:24:46;;;;;;;6.57;3.33;;;11.70;78.50;;;13.15;44.32;101698.72;4915696;28;96961;-54
2021/04/26 04:27:12;;;;;;;4.53;2.73;;;11.70;79.70;;;13.15;44.38;101704.03;4906060;28;97360;-51
2021/04/26 04:29:38;;;;;;;7.20;3.43;;;11.70;80.10;;;13.18;44.10;101698.69;4896799;28;96979;-52
2021/04/26 04:32:06;;;;;;;6.00;3.57;;;11.70;78.50;;;13.20;44.35;101696.84;4909754;28;97613;-53
2021/04/26 04:34:32;;;;;;;3.80;2.20;;;11.70;80.70;;;13.24;44.06;101693.19;4910245;28;97830;-53
2021/04/26 04:36:59;;;;;;;6.30;3.13;;;11.80;79.70;;;13.26;44.17;101696.66;4911329;28;98882;-51
2021/04/26 04:39:25;;;;;;;6.97;3.83;;;11.80;80.90;;;13.31;43.74;101693.88;4910052;28;97661;-53
2021/04/26 04:41:51;;;;;;;8.33;4.97;;;11.80;76.50;;;13.21;43.65;101693.28;4906116;28;97333;-55
2021/04/26 04:44:17;;;;;;;5.53;3.70;;;11.60;77.10;;;13.16;43.92;101705.75;4912843;28;97205;-55
2021/04/26 04:46:43;;;;;;;11.40;4.90;;;11.40;78.30;;;13.08;43.40;101707.78;4910510;28;97353;-54
2021/04/26 04:49:09;;;;;;;7.87;5.40;;;11.40;77.90;;;12.99;43.99;101702.75;4908328;28;96876;-55
2021/04/26 04:51:35;;;;;;;8.30;5.10;;;11.20;79.80;;;12.92;44.36;101706.50;4910623;28;97286;-55
2021/04/26 04:54:02;;;;;;;5.63;3.60;;;11.20;79.80;;;12.86;44.84;101714.59;4911398;28;97163;-55
2021/04/26 04:56:28;;;;;;;7.90;4.50;;;11.10;81.70;;;12.80;43.75;101715.66;4905672;28;98886;-54
2021/04/26 04:58:54;;;;;;;9.53;5.27;;;11.00;78.80;;;12.75;44.35;101710.50;4912085;28;100607;-53
2021/04/26 05:01:20;;;;;;;7.07;4.13;;;11.00;79.80;;;12.75;45.07;101710.50;4909878;28;100099;-55
2021/04/26 05:03:46;;;;;;;5.30;3.83;;;11.10;80.80;;;12.75;44.92;101715.78;4916618;28;97303;-54
2021/04/26 05:06:12;;;;;;;9.23;5.07;;;11.20;80.50;;;12.68;44.83;101714.19;4897253;28;100881;-51
2021/04/26 05:08:38;;;;;;;9.47;4.50;;;11.00;80.70;;;12.68;44.73;101706.25;4908225;28;98051;-53
2021/04/26 05:11:04;;;;;;;7.93;4.90;;;11.00;79.40;;;12.60;44.74;101700.31;4910522;28;98917;-54
2021/04/26 05:13:31;;;;;;;8.33;4.27;;;10.90;79.50;;;12.58;45.05;101707.41;4909139;28;97535;-55
2021/04/26 05:15:57;;;;;;;8.17;5.10;;;10.90;81.30;;;12.53;44.79;101714.63;4914895;28;97612;-54
2021/04/26 05:18:23;;;;;;;7.63;4.67;;;10.80;81.30;;;12.43;44.05;101705.19;4908125;28;99650;-54
2021/04/26 05:20:49;;;;;;;6.13;4.27;;;10.80;80.10;;;12.37;44.71;101702.72;4910994;28;107910;-52
2021/04/26 05:23:15;;;;;;;7.00;4.47;;;10.70;82.20;;;12.36;45.54;101700.97;4905750;28;97163;-58
2021/04/26 05:25:41;;;;;;;6.17;3.73;;;10.70;82.20;;;12.21;45.82;101702.25;4912159;28;97349;-53
2021/04/26 05:28:08;;;;;;;6.97;4.67;;;10.60;82.80;;;12.19;45.59;101698.78;4911588;28;97568;-55
2021/04/26 05:30:34;;;;;;;9.67;5.47;;;10.60;83.30;;;12.27;44.19;101701.22;4906632;28;100281;-57
2021/04/26 05:33:01;;;;;;;4.00;2.27;;;10.80;82.30;;;12.29;45.67;101699.38;4912486;28;97108;-56
2021/04/26 05:35:27;;;;;;;6.90;3.40;;;10.80;83.20;;;12.33;46.07;101696.63;4907253;28;97813;-57
2021/04/26 05:37:53;;;;;;;4.70;2.60;;;10.80;86.20;;;12.37;45.97;101694.78;4913868;28;97767;-57
2021/04/26 05:40:19;;;;;;;7.13;3.60;;;10.90;84.70;;;12.47;45.57;101698.91;4905985;28;99245;-51
2021/04/26 05:42:45;;;;;;;2.90;2.10;;;11.00;84.40;;;12.62;45.31;101701.16;4910009;28;97028;-55
2021/04/26 05:45:11;;;;;;;3.13;1.87;;;11.30;87.70;;;12.79;45.29;101701.53;4911079;28;99106;-58
2021/04/26 05:47:37;;;;;;;3.10;2.27;;;11.60;87.70;;;13.11;44.56;101702.38;4905313;28;96976;-54
2021/04/26 05:50:04;;;;;;;3.40;1.93;;;12.20;85.40;;;13.76;43.23;101712.78;4903693;28;99015;-55
2021/04/26 05:52:30;;;;;;;5.20;2.30;;;13.20;82.90;;;14.15;42.29;101709.72;4903970;28;97372;-56
2021/04/26 05:54:56;;;;;;;3.20;2.20;;;13.90;79.60;;;14.46;41.18;101707.75;4911867;28;97534;-50
2021/04/26 05:57:22;;;;;;;1.97;1.60;;;14.30;76.30;;;14.87;40.37;101708.06;4924992;28;101527;-55
2021/04/26 05:59:48;;;;;;;1.77;1.27;;;14.80;76.20;;;15.14;39.98;101708.84;4909361;28;98111;-55
2021/04/26 06:02:14;;;;;;;2.23;1.90;;;15.10;75.30;;;15.38;39.41;101709.69;4907792;28;97782;-58
2021/04/26 06:04:39;;;;;;;3.33;2.33;;;15.40;74.30;;;15.55;38.67;101709.88;4911656;28;97276;-56
2021/04/26 06:07:05;;;;;;;3.77;2.40;;;15.50;70.20;;;15.61;34.25;101714.97;4906737;28;118133;-51
2021/04/26 06:09:31;;;;;;;2.77;1.80;;;15.70;64.40;;;15.71;38.56;101711.03;4914465;28;97117;-54
2021/04/26 06:11:57;;;;;;;3.67;2.23;;;15.60;73.00;;;15.93;37.71;101723.47;4907550;28;97119;-53
2021/04/26 06:14:23;;;;;;;3.63;1.90;;;15.90;68.60;;;16.05;37.92;101709.63;4908317;28;98790;-55
2021/04/26 06:16:49;;;;;;;1.80;1.67;;;16.00;71.90;;;16.14;38.10;101714.59;4907133;28;107754;-55
2021/04/26 06:19:15;;;;;;;2.17;1.60;;;16.20;71.60;;;16.31;37.59;101713.88;4917381;28;96825;-59
2021/04/26 06:21:40;;;;;;;2.63;1.67;;;16.40;71.10;;;16.46;37.17;101704.34;4903947;28;96995;-54
2021/04/26 06:24:07;;;;;;;2.90;1.63;;;16.50;70.40;;;16.61;36.96;101709.00;4914649;28;99903;-56
2021/04/26 06:26:33;;;;;;;2.67;1.73;;;16.70;69.80;;;16.73;36.83;101713.84;4903624;28;97017;-54
2021/04/26 06:28:58;;;;;;;2.20;1.50;;;16.90;69.30;;;16.82;36.59;101712.56;4895209;28;98200;-53
2021/04/26 06:31:24;;;;;;;2.33;1.53;;;17.00;68.70;;;16.90;36.47;101703.28;4904627;28;100059;-53
2021/04/26 06:33:50;;;;;;;3.20;1.43;;;17.10;68.20;;;17.01;36.14;101709.94;4912282;28;97816;-54
2021/04/26 06:36:16;;;;;;;2.30;1.40;;;17.20;67.90;;;17.04;35.86;101705.31;4903434;28;99007;-55
2021/04/26 06:38:42;;;;;;;2.07;1.37;;;17.30;67.50;;;17.09;35.71;101705.97;4913917;28;97219;-54
2021/04/26 06:41:08;;;;;;;2.13;1.50;;;17.30;67.20;;;17.15;35.55;101704.81;4911139;28;101658;-54
2021/04/26 06:43:33;;;;;;;3.73;1.50;;;17.40;67.20;;;17.20;35.55;101702.78;4907243;28;97194;-51
2021/04/26 06:45:59;;;;;;;1.50;1.27;;;17.40;66.80;;;17.21;35.58;101704.53;4906298;28;97673;-54
2021/04/26 06:48:25;;;;;;;1.97;1.47;;;17.40;66.70;;;17.22;35.36;101701.81;4901826;28;99373;-53
2021/04/26 06:50:51;;;;;;;1.40;1.17;;;17.40;66.50;;;17.24;35.34;101701.75;4911458;28;97436;-55
2021/04/26 06:53:17;;;;;;;2.67;1.50;;;17.40;66.50;;;17.29;35.61;101693.50;4904655;28;98043;-52
2021/04/26 06:55:43;;;;;;;2.67;1.50;;;17.50;66.20;;;17.26;35.39;101694.53;4911411;28;98757;-55
2021/04/26 06:58:09;;;;;;;2.30;1.40;;;17.50;66.20;;;17.33;35.04;101698.63;4899538;28;99086;-55
2021/04/26 07:00:35;;;;;;;2.40;1.20;;;17.50;65.60;;;17.34;35.02;101704.81;4903588;28;97043;-56
2021/04/26 07:03:03;;;;;;;4.37;1.57;;;17.50;65.90;;;17.33;35.02;101700.41;4902733;28;98751;-54
2021/04/26 07:05:28;;;;;;;2.43;1.20;;;17.50;66.00;;;17.33;34.96;101698.63;4901983;28;97539;-51
2021/04/26 07:07:54;;;;;;;2.37;1.47;;;17.50;65.90;;;17.36;35.16;101701.16;4900031;28;99048;-54
2021/04/26 07:10:20;;;;;;;1.40;0.90;;;17.60;65.90;;;17.36;35.20;101701.16;4920721;28;96978;-55
2021/04/26 07:12:46;;;;;;;2.10;1.13;;;17.60;65.80;;;17.37;34.99;101700.22;4907021;28;97336;-56
2021/04/26 07:15:15;;;;;;;2.93;1.10;;;17.60;65.70;;;17.37;34.90;101694.88;4908226;28;97550;-54
2021/04/26 07:17:42;;;;;;;1.73;0.87;;;17.60;65.60;;;17.36;35.02;101698.50;4924236;28;99951;-55
2021/04/26 07:20:11;;;;;;;1.27;1.00;;;17.60;65.10;;;17.40;34.90;101689.41;4907495;28;97661;-55
2021/04/26 07:22:37;;;;;;;2.10;1.10;;;17.60;65.40;;;17.41;34.74;101684.94;4909252;28;97033;-52
2021/04/26 07:25:05;;;;;;;1.77;1.30;;;17.60;65.00;;;17.42;34.96;101676.84;4905090;28;100233;-56
2021/04/26 07:27:31;;;;;;;2.73;1.03;;;17.70;65.40;;;17.42;34.79;101676.00;4909186;28;97894;-55
2021/04/26 07:29:57;;;;;;;1.30;0.93;;;17.60;65.20;;;17.36;34.48;101673.59;4904110;28;97106;-56
2021/04/26 07:32:23;;;;;;;1.93;1.00;;;17.60;64.70;;;17.35;34.69;101674.53;4909632;28;97247;-56
2021/04/26 07:34:49;;;;;;;2.20;0.80;;;17.60;64.90;;;17.31;34.85;101679.16;4908144;28;97575;-56
2021/04/26 07:37:15;;;;;;;1.17;0.90;;;17.60;64.80;;;17.38;34.59;101669.94;4908764;28;97335;-60
2021/04/26 07:39:41;;;;;;;1.23;0.80;;;17.60;65.00;;;17.32;34.59;101675.56;4919085;28;97541;-56
2021/04/26 07:42:07;;;;;;;1.17;0.80;;;17.60;64.60;;;17.34;34.13;101671.00;4908079;28;97888;-56
2021/04/26 07:44:33;;;;;;;2.07;0.90;;;17.60;64.20;;;17.33;34.17;101671.94;4900619;28;98701;-56
2021/04/26 07:46:59;;;;;;;2.50;1.00;;;17.60;64.00;;;17.30;34.11;101669.44;4913742;28;97630;-55
2021/04/26 07:49:26;;;;;;;0.93;0.80;;;17.50;64.00;;;17.31;33.96;101668.50;4903445;28;98356;-51
2021/04/26 07:51:52;;;;;;;2.03;0.80;;;17.60;63.70;;;17.27;34.12;101672.25;4908263;28;97363;-55
2021/04/26 07:54:19;;;;;;;2.13;0.70;;;17.50;63.90;;;17.31;33.95;101668.50;4898577;28;98984;-53
2021/04/26 07:56:45;;;;;;;1.93;0.83;;;17.50;63.60;;;17.36;33.94;101669.16;4907141;28;99731;-55
2021/04/26 07:59:11;;;;;;;1.00;0.80;;;17.60;63.40;;;17.30;34.10;101666.78;4914000;28;97582;-52
2021/04/26 08:01:37;;;;;;;1.33;0.80;;;17.50;63.90;;;17.29;34.22;101675.72;4888933;28;97578;-55
2021/04/26 08:04:03;;;;;;;1.57;1.03;;;17.50;63.80;;;17.35;34.27;101661.22;4910830;28;99031;-56
2021/04/26 08:06:29;;;;;;;2.07;0.87;;;17.60;63.00;;;17.36;33.22;101666.50;4902191;28;97709;-54
2021/04/26 08:08:55;;;;;;;1.33;0.70;;;17.60;60.70;;;17.34;33.32;101663.00;4891026;28;96986;-54
2021/04/26 08:11:21;;;;;;;2.53;0.80;;;17.50;60.00;;;17.37;34.30;101668.22;4904889;28;97424;-56
2021/04/26 08:13:47;;;;;;;1.63;0.70;;;17.50;64.20;;;17.37;34.54;101668.22;4913127;28;96926;-54
2021/04/26 08:16:13;;;;;;;1.37;0.80;;;17.60;63.90;;;17.39;33.52;101661.00;4905025;28;98531;-56
2021/04/26 08:18:39;;;;;;;0.60;0.60;;;17.60;60.50;;;17.35;34.29;101654.06;4911297;28;97282;-55
2021/04/26 08:21:05;;;;;;;1.47;0.80;;;17.50;63.90;;;17.25;33.79;101653.66;4903755;28;97029;-54
2021/04/26 08:23:31;;;;;;;1.47;0.60;;;17.30;62.00;;;17.31;34.31;101657.84;4897452;28;98352;-55
2021/04/26 08:25:58;;;;;;;0.97;0.77;;;17.40;64.50;;;17.34;34.26;101657.69;4907289;28;99020;-54
2021/04/26 08:28:26;;;;;;;2.30;0.90;;;17.40;64.30;;;17.34;34.15;101641.66;4912134;28;97201;-56
2021/04/26 08:30:52;;;;;;;1.17;0.87;;;17.50;61.70;;;17.28;34.58;101652.66;4891154;28;98888;-55
2021/04/26 08:33:18;;;;;;;1.83;0.90;;;17.50;64.30;;;17.36;34.36;101650.50;4910164;28;98904;-50
2021/04/26 08:35:43;;;;;;;1.47;0.60;;;17.50;64.00;;;17.42;34.06;101650.19;4911648;28;97610;-56
2021/04/26 08:38:10;;;;;;;1.00;0.53;;;17.60;62.80;;;17.43;34.04;101641.25;4891826;28;99231;-55
2021/04/26 08:40:38;;;;;;;2.33;0.93;;;17.60;63.80;;;17.42;33.88;101652.00;4904963;28;103049;-56
2021/04/26 08:43:06;;;;;;;1.93;1.20;;;17.60;61.90;;;17.37;32.71;101648.69;4908531;28;97857;-55
2021/04/26 08:45:33;;;;;;;1.40;0.80;;;17.40;57.80;;;17.36;34.09;101641.59;4904893;28;97401;-55
2021/04/26 08:48:02;;;;;;;0.90;0.70;;;17.40;63.10;;;17.37;34.02;101636.22;4911865;28;96954;-56
2021/04/26 08:50:28;;;;;;;2.00;0.80;;;17.40;63.30;;;17.30;34.13;101633.91;4906313;28;97302;-55
2021/04/26 08:52:54;;;;;;;1.40;0.90;;;17.30;63.60;;;17.26;31.20;101638.53;4906693;28;99730;-56
2021/04/26 08:55:20;;;;;;;2.53;1.43;;;17.30;55.70;;;17.12;27.57;101630.31;4907625;28;113406;-52
2021/04/26 08:57:49;;;;;;;2.83;0.87;;;17.10;51.10;;;17.09;33.68;101642.00;4914612;28;97162;-56
2021/04/26 09:00:17;;;;;;;0.87;0.60;;;17.00;61.80;;;17.11;34.45;101647.25;4890407;28;98923;-60
2021/04/26 09:03:05;;;;;;;2.70;1.40;;;17.10;64.40;;;17.07;31.38;101627.00;4912236;28;98216;-54
2021/04/26 09:05:36;;;;;;;2.33;1.30;;;17.00;52.60;;;16.95;34.43;101628.47;4906039;28;97251;-56
2021/04/26 09:08:06;;;;;;;4.00;1.97;;;16.80;58.40;;;16.71;26.80;101624.25;4905905;28;97998;-56
2021/04/26 09:10:39;;;;;;;1.20;0.90;;;16.50;51.90;;;16.74;35.33;101632.09;4907881;28;98241;-56
2021/04/26 09:13:39;;;;;;;0.50;0.43;;;16.50;65.90;;;16.75;35.23;101626.69;4908994;28;99791;-52
2021/04/26 09:16:19;;;;;;;1.00;0.63;;;16.70;65.70;;;16.83;34.88;101624.56;4910883;28;103312;-54
2021/04/26 09:19:00;;;;;;;1.13;0.87;;;16.90;64.90;;;16.91;33.95;101625.06;4909767;28;98195;-54
2021/04/26 09:21:30;;;;;;;2.63;1.33;;;17.00;60.70;;;16.89;30.50;101621.59;4907316;28;96791;-54
2021/04/26 09:24:16;;;;;;;0.70;0.60;;;17.00;55.70;;;17.01;34.08;101616.63;4908292;28;98110;-56
2021/04/26 09:26:46;;;;;;;1.13;0.50;;;17.10;61.50;;;17.03;34.52;101617.44;4907328;28;102273;-55
2021/04/26 09:29:24;;;;;;;0.60;0.47;;;17.20;64.30;;;17.14;34.56;101617.78;4909896;28;96882;-56
2021/04/26 09:32:15;;;;;;;1.63;0.80;;;17.30;64.00;;;17.14;34.01;101612.44;4924131;28;96968;-53
2021/04/26 09:34:44;;;;;;;2.30;1.23;;;17.30;62.50;;;17.14;27.53;101607.13;4898637;28;103756;-55
2021/04/26 09:37:23;;;;;;;0.80;0.50;;;17.30;56.20;;;17.24;34.32;101595.94;4915581;28;97337;-56
2021/04/26 09:40:11;;;;;;;0.97;0.50;;;17.40;63.70;;;17.25;34.39;101594.16;4903946;28;102762;-53
2021/04/26 09:42:54;;;;;;;0.50;0.50;;;17.50;63.80;;;17.25;34.41;101588.81;4894743;28;97051;-56
2021/04/26 09:45:36;;;;;;;0.67;0.60;;;17.50;63.70;;;17.26;34.31;101590.53;4886394;28;101247;-55
2021/04/26 09:48:21;;;;;;;0.70;0.43;;;17.50;63.50;;;17.31;28.70;101588.50;4909951;28;97897;-55
2021/04/26 09:51:02;;;;;;;0.83;0.57;;;17.50;63.20;;;17.33;34.20;101575.94;4905868;28;99141;-56
2021/04/26 09:53:55;;;;;;;2.43;1.70;;;17.50;63.40;;;17.21;33.67;101576.53;4908749;28;97013;-55
2021/04/26 09:56:25;;;;;;;2.27;0.70;;;17.20;58.20;;;17.08;33.82;101565.63;4905556;28;98601;-56
2021/04/26 09:58:58;;;;;;;1.10;0.60;;;17.00;61.50;;;17.12;34.42;101571.69;4933490;28;98307;-55
2021/04/26 10:01:25;;;;;;;0.80;0.57;;;17.20;63.80;;;17.15;34.17;101567.06;4902287;28;97414;-54
2021/04/26 10:03:52;;;;;;;0.93;0.60;;;17.30;63.50;;;17.23;34.34;101564.03;4911704;28;97442;-54
2021/04/26 10:06:20;;;;;;;0.83;0.70;;;17.40;63.70;;;17.34;34.08;101555.47;4903537;28;101449;-55
2021/04/26 10:08:53;;;;;;;1.00;0.50;;;17.50;63.90;;;17.44;34.00;101549.63;4916658;28;97371;-51
2021/04/26 10:11:21;;;;;;;2.20;1.13;;;17.60;62.80;;;17.44;27.75;101557.63;4905594;28;97359;-56
2021/04/26 10:13:48;;;;;;;0.50;0.40;;;17.70;56.10;;;17.47;33.64;101541.44;4913679;28;97067;-54
2021/04/26 10:16:21;;;;;;;0.47;0.40;;;17.60;62.80;;;17.51;33.69;101547.53;4924098;28;98720;-57
2021/04/26 10:18:48;;;;;;;1.53;0.70;;;17.70;62.90;;;17.58;33.42;101537.38;4896605;28;103857;-55